sensor_id;sensor_type;location;lat;lon;timestamp;pressure;altitude;pressure_sealevel;temperature;humidity
70781;BME280;59514;48.810;2.134;2022-07-05T00:02:21;100970.09;;;17.54;60.88
70781;BME280;59514;48.810;2.134;2022-07-05T00:04:46;100976.56;;;17.31;62.13
70781;BME280;59514;48.810;2.134;2022-07-05T00:07:12;100977.88;;;17.02;62.96
70781;BME280;59514;48.810;2.134;2022-07-05T00:09:45;100979.16;;;17.21;62.79
70781;BME280;59514;48.810;2.134;2022-07-05T00:12:11;100977.06;;;16.85;63.65
70781;BME280;59514;48.810;2.134;2022-07-05T00:14:41;100980.88;;;16.84;63.43
70781;BME280;59514;48.810;2.134;2022-07-05T00:17:07;100977.38;;;16.88;63.07
70781;BME280;59514;48.810;2.134;2022-07-05T00:19:32;100974.75;;;16.72;63.24
70781;BME280;59514;48.810;2.134;2022-07-05T00:21:58;100977.47;;;16.72;63.55
70781;BME280;59514;48.810;2.134;2022-07-05T00:24:25;100979.00;;;17.06;62.96
70781;BME280;59514;48.810;2.134;2022-07-05T00:26:50;100979.03;;;16.68;63.31
70781;BME280;59514;48.810;2.134;2022-07-05T00:29:16;100983.00;;;16.60;63.66
70781;BME280;59514;48.810;2.134;2022-07-05T00:31:41;100983.28;;;16.47;64.10
70781;BME280;59514;48.810;2.134;2022-07-05T00:34:07;100977.88;;;16.47;64.29
70781;BME280;59514;48.810;2.134;2022-07-05T00:36:32;100979.28;;;16.33;64.96
70781;BME280;59514;48.810;2.134;2022-07-05T00:38:57;100983.38;;;16.35;64.88
70781;BME280;59514;48.810;2.134;2022-07-05T00:41:23;100984.81;;;16.76;63.91
70781;BME280;59514;48.810;2.134;2022-07-05T00:43:57;100991.78;;;16.51;64.57
70781;BME280;59514;48.810;2.134;2022-07-05T00:46:23;100986.69;;;16.37;64.82
70781;BME280;59514;48.810;2.134;2022-07-05T00:48:48;100979.47;;;16.26;65.31
70781;BME280;59514;48.810;2.134;2022-07-05T00:51:14;100983.72;;;16.39;64.62
70781;BME280;59514;48.810;2.134;2022-07-05T00:53:40;100984.22;;;16.19;65.97
70781;BME280;59514;48.810;2.134;2022-07-05T00:56:06;100979.47;;;16.26;65.06
70781;BME280;59514;48.810;2.134;2022-07-05T00:58:32;100981.28;;;16.04;65.85
70781;BME280;59514;48.810;2.134;2022-07-05T01:00:59;100983.97;;;16.04;65.98
70781;BME280;59514;48.810;2.134;2022-07-05T01:03:26;100981.19;;;16.16;66.05
70781;BME280;59514;48.810;2.134;2022-07-05T01:05:52;100982.75;;;16.28;65.12
70781;BME280;59514;48.810;2.134;2022-07-05T01:08:19;100981.28;;;16.04;65.95
70781;BME280;59514;48.810;2.134;2022-07-05T01:10:45;100976.09;;;16.19;65.48
70781;BME280;59514;48.810;2.134;2022-07-05T01:13:10;100970.16;;;16.39;65.14
70781;BME280;59514;48.810;2.134;2022-07-05T01:15:36;100971.75;;;16.52;64.18
70781;BME280;59514;48.810;2.134;2022-07-05T01:18:04;100979.75;;;16.47;64.78
70781;BME280;59514;48.810;2.134;2022-07-05T01:20:30;100967.78;;;16.59;64.32
70781;BME280;59514;48.810;2.134;2022-07-05T01:22:57;100963.25;;;16.48;64.86
70781;BME280;59514;48.810;2.134;2022-07-05T01:25:26;100966.81;;;16.15;65.70
70781;BME280;59514;48.810;2.134;2022-07-05T01:27:52;100981.44;;;15.98;66.95
70781;BME280;59514;48.810;2.134;2022-07-05T01:30:18;100984.22;;;16.19;66.27
70781;BME280;59514;48.810;2.134;2022-07-05T01:32:44;100976.47;;;15.78;67.19
70781;BME280;59514;48.810;2.134;2022-07-05T01:35:12;100966.47;;;15.95;66.43
70781;BME280;59514;48.810;2.134;2022-07-05T01:37:39;100967.78;;;15.93;67.92
70781;BME280;59514;48.810;2.134;2022-07-05T01:40:05;100967.78;;;15.93;66.71
70781;BME280;59514;48.810;2.134;2022-07-05T01:42:31;100974.03;;;15.93;67.01
70781;BME280;59514;48.810;2.134;2022-07-05T01:44:56;100974.25;;;15.75;67.29
70781;BME280;59514;48.810;2.134;2022-07-05T01:47:22;100971.56;;;15.47;68.32
70781;BME280;59514;48.810;2.134;2022-07-05T01:49:51;100977.16;;;15.29;69.07
70781;BME280;59514;48.810;2.134;2022-07-05T01:52:20;100966.16;;;15.47;69.00
70781;BME280;59514;48.810;2.134;2022-07-05T01:54:46;100963.81;;;15.50;68.11
70781;BME280;59514;48.810;2.134;2022-07-05T01:57:12;100974.06;;;15.37;68.63
70781;BME280;59514;48.810;2.134;2022-07-05T01:59:38;100974.06;;;15.37;68.74
70781;BME280;59514;48.810;2.134;2022-07-05T02:02:04;100977.47;;;15.44;68.65
70781;BME280;59514;48.810;2.134;2022-07-05T02:04:31;100968.16;;;15.40;68.26
70781;BME280;59514;48.810;2.134;2022-07-05T02:06:58;100970.69;;;15.58;67.98
70781;BME280;59514;48.810;2.134;2022-07-05T02:09:23;100970.13;;;15.56;68.00
70781;BME280;59514;48.810;2.134;2022-07-05T02:11:49;100961.69;;;15.52;69.02
70781;BME280;59514;48.810;2.134;2022-07-05T02:14:14;100968.66;;;15.37;68.72
70781;BME280;59514;48.810;2.134;2022-07-05T02:16:40;100964.50;;;15.46;68.82
70781;BME280;59514;48.810;2.134;2022-07-05T02:19:05;100962.94;;;15.22;69.50
70781;BME280;59514;48.810;2.134;2022-07-05T02:21:30;100966.25;;;15.12;70.08
70781;BME280;59514;48.810;2.134;2022-07-05T02:23:56;100961.09;;;15.11;70.39
70781;BME280;59514;48.810;2.134;2022-07-05T02:26:21;100961.31;;;15.09;70.62
70781;BME280;59514;48.810;2.134;2022-07-05T02:28:47;100953.75;;;14.95;70.58
70781;BME280;59514;48.810;2.134;2022-07-05T02:31:12;100959.28;;;14.88;71.64
70781;BME280;59514;48.810;2.134;2022-07-05T02:33:37;100958.56;;;14.93;71.45
70781;BME280;59514;48.810;2.134;2022-07-05T02:36:13;100960.56;;;14.86;72.06
70781;BME280;59514;48.810;2.134;2022-07-05T02:38:39;100959.03;;;15.01;71.60
70781;BME280;59514;48.810;2.134;2022-07-05T02:41:09;100957.03;;;14.97;71.34
70781;BME280;59514;48.810;2.134;2022-07-05T02:43:36;100958.94;;;14.61;72.39
70781;BME280;59514;48.810;2.134;2022-07-05T02:46:02;100953.63;;;14.90;72.52
70781;BME280;59514;48.810;2.134;2022-07-05T02:48:28;100956.66;;;15.05;71.59
70781;BME280;59514;48.810;2.134;2022-07-05T02:50:53;100960.59;;;14.74;72.55
70781;BME280;59514;48.810;2.134;2022-07-05T02:53:18;100952.56;;;14.91;71.96
70781;BME280;59514;48.810;2.134;2022-07-05T02:55:44;100959.81;;;15.02;70.78
70781;BME280;59514;48.810;2.134;2022-07-05T02:58:09;100958.84;;;15.08;70.29
70781;BME280;59514;48.810;2.134;2022-07-05T03:00:34;100962.09;;;14.82;71.77
70781;BME280;59514;48.810;2.134;2022-07-05T03:03:00;100963.41;;;14.67;71.69
70781;BME280;59514;48.810;2.134;2022-07-05T03:05:25;100962.75;;;14.37;73.38
70781;BME280;59514;48.810;2.134;2022-07-05T03:07:50;100963.69;;;14.43;73.55
70781;BME280;59514;48.810;2.134;2022-07-05T03:10:16;100959.56;;;14.40;73.59
70781;BME280;59514;48.810;2.134;2022-07-05T03:12:41;100955.59;;;14.31;73.80
70781;BME280;59514;48.810;2.134;2022-07-05T03:15:07;100958.47;;;14.18;74.26
70781;BME280;59514;48.810;2.134;2022-07-05T03:17:32;100967.44;;;14.30;73.62
70781;BME280;59514;48.810;2.134;2022-07-05T03:19:58;100961.56;;;14.33;74.54
70781;BME280;59514;48.810;2.134;2022-07-05T03:22:23;100961.91;;;14.37;74.10
70781;BME280;59514;48.810;2.134;2022-07-05T03:24:48;100963.69;;;14.31;73.68
70781;BME280;59514;48.810;2.134;2022-07-05T03:27:14;100968.84;;;14.44;74.07
70781;BME280;59514;48.810;2.134;2022-07-05T03:29:39;100965.69;;;14.47;73.95
70781;BME280;59514;48.810;2.134;2022-07-05T03:32:05;100963.69;;;14.31;74.83
70781;BME280;59514;48.810;2.134;2022-07-05T03:34:30;100973.31;;;14.50;72.57
70781;BME280;59514;48.810;2.134;2022-07-05T03:36:56;100974.50;;;14.43;73.20
70781;BME280;59514;48.810;2.134;2022-07-05T03:39:21;100972.97;;;14.47;74.52
70781;BME280;59514;48.810;2.134;2022-07-05T03:41:46;100973.88;;;14.52;73.52
70781;BME280;59514;48.810;2.134;2022-07-05T03:44:12;100969.91;;;14.55;72.97
70781;BME280;59514;48.810;2.134;2022-07-05T03:46:37;100981.31;;;14.57;73.58
70781;BME280;59514;48.810;2.134;2022-07-05T03:49:02;100982.00;;;14.29;74.45
70781;BME280;59514;48.810;2.134;2022-07-05T03:51:28;100995.03;;;14.32;74.58
70781;BME280;59514;48.810;2.134;2022-07-05T03:53:53;100989.63;;;14.44;74.66
70781;BME280;59514;48.810;2.134;2022-07-05T03:56:18;100994.81;;;14.45;74.70
70781;BME280;59514;48.810;2.134;2022-07-05T03:58:49;100995.50;;;14.29;74.78
70781;BME280;59514;48.810;2.134;2022-07-05T04:01:14;100992.09;;;14.34;74.49
70781;BME280;59514;48.810;2.134;2022-07-05T04:03:40;101000.13;;;13.99;76.36
70781;BME280;59514;48.810;2.134;2022-07-05T04:06:06;100998.16;;;14.18;75.40
70781;BME280;59514;48.810;2.134;2022-07-05T04:08:32;101001.06;;;13.93;76.61
70781;BME280;59514;48.810;2.134;2022-07-05T04:10:57;101005.19;;;13.96;76.72
70781;BME280;59514;48.810;2.134;2022-07-05T04:13:22;101004.25;;;14.13;75.85
70781;BME280;59514;48.810;2.134;2022-07-05T04:15:48;100998.53;;;14.21;75.71
70781;BME280;59514;48.810;2.134;2022-07-05T04:18:13;101005.59;;;14.34;75.01
70781;BME280;59514;48.810;2.134;2022-07-05T04:20:38;101014.09;;;14.37;74.94
70781;BME280;59514;48.810;2.134;2022-07-05T04:23:04;101013.06;;;14.20;74.96
70781;BME280;59514;48.810;2.134;2022-07-05T04:25:29;101023.34;;;14.00;76.41
70781;BME280;59514;48.810;2.134;2022-07-05T04:27:55;101018.16;;;14.28;75.11
70781;BME280;59514;48.810;2.134;2022-07-05T04:30:23;101020.72;;;14.23;75.41
70781;BME280;59514;48.810;2.134;2022-07-05T04:32:49;101021.03;;;14.04;75.97
70781;BME280;59514;48.810;2.134;2022-07-05T04:35:15;101014.84;;;13.73;77.53
70781;BME280;59514;48.810;2.134;2022-07-05T04:37:42;101014.41;;;13.88;75.36
70781;BME280;59514;48.810;2.134;2022-07-05T04:40:10;101015.44;;;13.75;77.08
70781;BME280;59514;48.810;2.134;2022-07-05T04:42:35;101015.41;;;13.64;77.02
70781;BME280;59514;48.810;2.134;2022-07-05T04:45:01;101022.91;;;13.62;77.81
70781;BME280;59514;48.810;2.134;2022-07-05T04:47:26;101027.75;;;13.42;78.36
70781;BME280;59514;48.810;2.134;2022-07-05T04:49:53;101027.91;;;13.88;76.91
70781;BME280;59514;48.810;2.134;2022-07-05T04:52:18;101031.00;;;14.03;76.05
70781;BME280;59514;48.810;2.134;2022-07-05T04:54:44;101033.22;;;14.06;76.06
70781;BME280;59514;48.810;2.134;2022-07-05T04:57:09;101033.13;;;14.01;76.61
70781;BME280;59514;48.810;2.134;2022-07-05T04:59:34;101026.19;;;14.05;75.52
70781;BME280;59514;48.810;2.134;2022-07-05T05:02:00;101030.06;;;13.98;76.54
70781;BME280;59514;48.810;2.134;2022-07-05T05:04:25;101029.28;;;13.49;78.01
70781;BME280;59514;48.810;2.134;2022-07-05T05:06:50;101034.59;;;13.26;79.49
70781;BME280;59514;48.810;2.134;2022-07-05T05:09:16;101043.94;;;13.06;81.36
70781;BME280;59514;48.810;2.134;2022-07-05T05:11:41;101035.38;;;13.09;80.59
70781;BME280;59514;48.810;2.134;2022-07-05T05:14:06;101034.66;;;13.20;80.61
70781;BME280;59514;48.810;2.134;2022-07-05T05:16:32;101031.47;;;13.70;77.97
70781;BME280;59514;48.810;2.134;2022-07-05T05:18:57;101039.25;;;13.49;79.12
70781;BME280;59514;48.810;2.134;2022-07-05T05:21:22;101039.09;;;13.62;78.76
70781;BME280;59514;48.810;2.134;2022-07-05T05:23:48;101038.38;;;13.37;80.09
70781;BME280;59514;48.810;2.134;2022-07-05T05:26:13;101049.09;;;13.43;80.49
70781;BME280;59514;48.810;2.134;2022-07-05T05:28:39;101042.56;;;13.15;80.64
70781;BME280;59514;48.810;2.134;2022-07-05T05:31:06;101047.06;;;13.21;81.24
70781;BME280;59514;48.810;2.134;2022-07-05T05:33:31;101058.38;;;13.11;82.48
70781;BME280;59514;48.810;2.134;2022-07-05T05:35:57;101049.34;;;13.24;82.08
70781;BME280;59514;48.810;2.134;2022-07-05T05:38:22;101049.94;;;13.26;81.69
70781;BME280;59514;48.810;2.134;2022-07-05T05:40:48;101051.19;;;13.23;82.01
70781;BME280;59514;48.810;2.134;2022-07-05T05:43:13;101050.84;;;13.67;80.61
70781;BME280;59514;48.810;2.134;2022-07-05T05:45:39;101058.28;;;13.54;80.91
70781;BME280;59514;48.810;2.134;2022-07-05T05:48:05;101060.97;;;12.99;83.59
70781;BME280;59514;48.810;2.134;2022-07-05T05:50:32;101068.28;;;13.17;83.02
70781;BME280;59514;48.810;2.134;2022-07-05T05:52:58;101055.41;;;13.19;83.19
70781;BME280;59514;48.810;2.134;2022-07-05T05:55:25;101067.06;;;13.49;82.03
70781;BME280;59514;48.810;2.134;2022-07-05T05:57:52;101072.16;;;13.57;82.00
70781;BME280;59514;48.810;2.134;2022-07-05T06:00:18;101077.94;;;13.43;82.43
70781;BME280;59514;48.810;2.134;2022-07-05T06:02:45;101073.09;;;13.63;82.18
70781;BME280;59514;48.810;2.134;2022-07-05T06:05:11;101073.94;;;13.63;81.69
70781;BME280;59514;48.810;2.134;2022-07-05T06:07:51;101073.25;;;13.68;82.02
70781;BME280;59514;48.810;2.134;2022-07-05T06:10:24;101063.59;;;13.60;82.59
70781;BME280;59514;48.810;2.134;2022-07-05T06:12:51;101069.63;;;13.74;82.32
70781;BME280;59514;48.810;2.134;2022-07-05T06:15:17;101069.81;;;13.91;82.21
70781;BME280;59514;48.810;2.134;2022-07-05T06:17:43;101067.72;;;13.93;81.67
70781;BME280;59514;48.810;2.134;2022-07-05T06:20:11;101069.00;;;13.90;81.89
70781;BME280;59514;48.810;2.134;2022-07-05T06:22:37;101070.44;;;14.04;81.35
70781;BME280;59514;48.810;2.134;2022-07-05T06:25:03;101079.47;;;13.98;81.80
70781;BME280;59514;48.810;2.134;2022-07-05T06:27:29;101077.03;;;14.08;81.73
70781;BME280;59514;48.810;2.134;2022-07-05T06:29:54;101075.84;;;14.04;82.25
70781;BME280;59514;48.810;2.134;2022-07-05T06:32:20;101077.66;;;14.22;81.61
70781;BME280;59514;48.810;2.134;2022-07-05T06:34:46;101070.81;;;14.37;81.12
70781;BME280;59514;48.810;2.134;2022-07-05T06:37:12;101070.72;;;14.55;81.04
70781;BME280;59514;48.810;2.134;2022-07-05T06:39:37;101078.69;;;14.74;79.71
70781;BME280;59514;48.810;2.134;2022-07-05T06:42:03;101073.19;;;14.80;79.66
70781;BME280;59514;48.810;2.134;2022-07-05T06:44:28;101075.78;;;14.87;78.92
70781;BME280;59514;48.810;2.134;2022-07-05T06:46:53;101071.19;;;14.87;79.11
70781;BME280;59514;48.810;2.134;2022-07-05T06:49:19;101074.59;;;14.83;79.48
70781;BME280;59514;48.810;2.134;2022-07-05T06:51:44;101081.88;;;14.94;79.18
70781;BME280;59514;48.810;2.134;2022-07-05T06:54:09;101085.97;;;15.08;78.86
70781;BME280;59514;48.810;2.134;2022-07-05T06:56:35;101077.03;;;14.96;78.96
70781;BME280;59514;48.810;2.134;2022-07-05T06:59:00;101077.53;;;15.04;79.10
70781;BME280;59514;48.810;2.134;2022-07-05T07:01:25;101077.94;;;15.36;78.20
70781;BME280;59514;48.810;2.134;2022-07-05T07:03:51;101074.03;;;15.55;76.86
70781;BME280;59514;48.810;2.134;2022-07-05T07:06:16;101076.16;;;15.53;77.28
70781;BME280;59514;48.810;2.134;2022-07-05T07:08:42;101076.84;;;15.60;77.19
70781;BME280;59514;48.810;2.134;2022-07-05T07:11:26;101076.41;;;15.40;77.69
70781;BME280;59514;48.810;2.134;2022-07-05T07:13:52;101072.25;;;15.61;78.02
70781;BME280;59514;48.810;2.134;2022-07-05T07:16:17;101074.59;;;15.69;77.26
70781;BME280;59514;48.810;2.134;2022-07-05T07:18:42;101078.66;;;15.83;77.02
70781;BME280;59514;48.810;2.134;2022-07-05T07:21:08;101070.09;;;15.74;77.21
70781;BME280;59514;48.810;2.134;2022-07-05T07:23:33;101076.41;;;15.80;77.19
70781;BME280;59514;48.810;2.134;2022-07-05T07:25:58;101087.31;;;15.96;77.16
70781;BME280;59514;48.810;2.134;2022-07-05T07:28:23;101084.03;;;16.11;76.14
70781;BME280;59514;48.810;2.134;2022-07-05T07:30:49;101075.88;;;16.22;75.98
70781;BME280;59514;48.810;2.134;2022-07-05T07:33:14;101078.31;;;16.24;75.79
70781;BME280;59514;48.810;2.134;2022-07-05T07:35:40;101082.50;;;16.31;75.48
70781;BME280;59514;48.810;2.134;2022-07-05T07:38:05;101084.25;;;16.37;75.54
70781;BME280;59514;48.810;2.134;2022-07-05T07:40:30;101094.59;;;16.40;76.06
70781;BME280;59514;48.810;2.134;2022-07-05T07:42:56;101093.59;;;16.47;75.39
70781;BME280;59514;48.810;2.134;2022-07-05T07:45:21;101086.22;;;16.42;75.54
70781;BME280;59514;48.810;2.134;2022-07-05T07:47:46;101091.50;;;16.49;75.35
70781;BME280;59514;48.810;2.134;2022-07-05T07:50:12;101102.50;;;16.59;75.10
70781;BME280;59514;48.810;2.134;2022-07-05T07:52:37;101094.47;;;16.64;74.57
70781;BME280;59514;48.810;2.134;2022-07-05T07:55:06;101093.06;;;16.61;74.50
70781;BME280;59514;48.810;2.134;2022-07-05T07:57:32;101099.97;;;16.69;74.50
70781;BME280;59514;48.810;2.134;2022-07-05T07:59:57;101101.22;;;16.78;74.12
70781;BME280;59514;48.810;2.134;2022-07-05T08:02:22;101103.00;;;16.89;73.51
70781;BME280;59514;48.810;2.134;2022-07-05T08:04:49;101110.88;;;16.90;73.37
70781;BME280;59514;48.810;2.134;2022-07-05T08:07:15;101100.69;;;16.97;73.09
70781;BME280;59514;48.810;2.134;2022-07-05T08:09:42;101098.03;;;17.02;73.63
70781;BME280;59514;48.810;2.134;2022-07-05T08:12:08;101094.00;;;17.05;72.71
70781;BME280;59514;48.810;2.134;2022-07-05T08:14:33;101096.31;;;17.13;71.80
70781;BME280;59514;48.810;2.134;2022-07-05T08:16:58;101100.16;;;17.17;71.75
70781;BME280;59514;48.810;2.134;2022-07-05T08:19:24;101094.22;;;17.20;71.83
70781;BME280;59514;48.810;2.134;2022-07-05T08:22:08;101097.84;;;17.26;70.93
70781;BME280;59514;48.810;2.134;2022-07-05T08:24:35;101091.97;;;17.34;70.29
70781;BME280;59514;48.810;2.134;2022-07-05T08:27:00;101083.63;;;17.40;70.14
70781;BME280;59514;48.810;2.134;2022-07-05T08:29:26;101089.16;;;17.45;69.54
70781;BME280;59514;48.810;2.134;2022-07-05T08:31:52;101088.72;;;17.53;69.83
70781;BME280;59514;48.810;2.134;2022-07-05T08:34:17;101087.72;;;17.59;69.92
70781;BME280;59514;48.810;2.134;2022-07-05T08:36:44;101087.84;;;17.69;69.07
70781;BME280;59514;48.810;2.134;2022-07-05T08:39:10;101088.31;;;17.88;66.92
70781;BME280;59514;48.810;2.134;2022-07-05T08:41:38;101087.84;;;17.96;65.82
70781;BME280;59514;48.810;2.134;2022-07-05T08:44:05;101085.34;;;17.89;66.19
70781;BME280;59514;48.810;2.134;2022-07-05T08:46:31;101078.34;;;17.93;66.06
70781;BME280;59514;48.810;2.134;2022-07-05T08:49:00;101089.50;;;17.97;66.35
70781;BME280;59514;48.810;2.134;2022-07-05T08:51:27;101078.19;;;18.05;64.49
70781;BME280;59514;48.810;2.134;2022-07-05T08:53:53;101087.22;;;18.16;63.34
70781;BME280;59514;48.810;2.134;2022-07-05T08:56:21;101087.56;;;18.19;60.70
70781;BME280;59514;48.810;2.134;2022-07-05T08:58:46;101081.59;;;18.22;60.92
70781;BME280;59514;48.810;2.134;2022-07-05T09:01:12;101082.16;;;18.24;60.27
70781;BME280;59514;48.810;2.134;2022-07-05T09:03:39;101077.09;;;18.33;61.02
70781;BME280;59514;48.810;2.134;2022-07-05T09:06:12;101079.66;;;18.44;61.69
70781;BME280;59514;48.810;2.134;2022-07-05T09:08:40;101075.88;;;18.45;61.33
70781;BME280;59514;48.810;2.134;2022-07-05T09:11:11;101075.91;;;18.50;61.02
70781;BME280;59514;48.810;2.134;2022-07-05T09:13:40;101077.03;;;18.59;62.30
70781;BME280;59514;48.810;2.134;2022-07-05T09:16:06;101074.66;;;18.63;61.66
70781;BME280;59514;48.810;2.134;2022-07-05T09:18:45;101078.41;;;18.57;61.12
70781;BME280;59514;48.810;2.134;2022-07-05T09:21:24;101077.66;;;18.66;60.70
70781;BME280;59514;48.810;2.134;2022-07-05T09:24:09;101069.31;;;18.78;59.45
70781;BME280;59514;48.810;2.134;2022-07-05T09:26:38;101077.81;;;18.86;59.04
70781;BME280;59514;48.810;2.134;2022-07-05T09:29:06;101076.50;;;18.94;59.25
70781;BME280;59514;48.810;2.134;2022-07-05T09:31:34;101071.06;;;18.99;59.15
70781;BME280;59514;48.810;2.134;2022-07-05T09:34:07;101072.72;;;19.00;59.06
70781;BME280;59514;48.810;2.134;2022-07-05T09:37:11;101068.41;;;19.09;58.30
70781;BME280;59514;48.810;2.134;2022-07-05T09:39:38;101074.41;;;19.11;57.98
70781;BME280;59514;48.810;2.134;2022-07-05T09:44:52;101072.50;;;19.07;58.01
70781;BME280;59514;48.810;2.134;2022-07-05T09:47:28;101075.72;;;19.04;58.29
70781;BME280;59514;48.810;2.134;2022-07-05T09:49:55;101082.34;;;19.18;58.64
70781;BME280;59514;48.810;2.134;2022-07-05T09:55:13;101078.28;;;19.25;57.72
70781;BME280;59514;48.810;2.134;2022-07-05T09:57:42;101081.69;;;19.42;56.96
70781;BME280;59514;48.810;2.134;2022-07-05T10:00:16;101080.28;;;19.35;56.66
70781;BME280;59514;48.810;2.134;2022-07-05T10:02:49;101076.75;;;19.39;56.71
70781;BME280;59514;48.810;2.134;2022-07-05T10:07:43;101075.75;;;19.55;56.34
70781;BME280;59514;48.810;2.134;2022-07-05T10:10:11;101079.00;;;19.57;56.20
70781;BME280;59514;48.810;2.134;2022-07-05T10:12:37;101082.88;;;19.66;55.84
70781;BME280;59514;48.810;2.134;2022-07-05T10:15:05;101081.25;;;19.75;54.85
70781;BME280;59514;48.810;2.134;2022-07-05T10:17:37;101090.56;;;19.90;54.31
70781;BME280;59514;48.810;2.134;2022-07-05T10:20:21;101086.84;;;20.21;53.47
70781;BME280;59514;48.810;2.134;2022-07-05T10:22:49;101077.81;;;20.91;50.56
70781;BME280;59514;48.810;2.134;2022-07-05T10:25:14;101077.41;;;21.53;49.75
70781;BME280;59514;48.810;2.134;2022-07-05T10:27:40;101094.78;;;21.82;48.95
70781;BME280;59514;48.810;2.134;2022-07-05T10:30:07;101086.94;;;22.14;48.44
70781;BME280;59514;48.810;2.134;2022-07-05T10:32:34;101087.00;;;22.43;48.14
70781;BME280;59514;48.810;2.134;2022-07-05T10:35:01;101085.56;;;22.50;47.81
70781;BME280;59514;48.810;2.134;2022-07-05T10:37:30;101085.56;;;22.50;47.46
70781;BME280;59514;48.810;2.134;2022-07-05T10:39:57;101079.84;;;22.13;47.10
70781;BME280;59514;48.810;2.134;2022-07-05T10:42:25;101075.91;;;22.29;46.24
70781;BME280;59514;48.810;2.134;2022-07-05T10:44:52;101074.75;;;22.97;44.53
70781;BME280;59514;48.810;2.134;2022-07-05T10:47:17;101075.50;;;23.32;43.34
70781;BME280;59514;48.810;2.134;2022-07-05T10:49:59;101070.09;;;23.69;43.07
70781;BME280;59514;48.810;2.134;2022-07-05T10:52:25;101057.13;;;23.93;41.89
70781;BME280;59514;48.810;2.134;2022-07-05T11:00:41;101056.47;;;24.01;41.95
70781;BME280;59514;48.810;2.134;2022-07-05T11:06:00;101052.25;;;24.59;40.53
70781;BME280;59514;48.810;2.134;2022-07-05T11:08:26;101060.06;;;24.52;41.50
70781;BME280;59514;48.810;2.134;2022-07-05T11:11:09;101059.59;;;25.64;39.63
70781;BME280;59514;48.810;2.134;2022-07-05T11:13:36;101073.63;;;24.62;39.78
70781;BME280;59514;48.810;2.134;2022-07-05T11:18:47;101059.69;;;25.32;39.60
70781;BME280;59514;48.810;2.134;2022-07-05T11:21:22;101059.81;;;25.27;39.92
70781;BME280;59514;48.810;2.134;2022-07-05T11:23:48;101063.81;;;24.56;40.11
70781;BME280;59514;48.810;2.134;2022-07-05T11:26:17;101056.34;;;24.11;40.46
70781;BME280;59514;48.810;2.134;2022-07-05T11:28:46;101055.09;;;24.68;39.09
70781;BME280;59514;48.810;2.134;2022-07-05T11:31:39;101055.50;;;25.75;37.51
70781;BME280;59514;48.810;2.134;2022-07-05T11:34:14;101058.66;;;25.82;37.18
70781;BME280;59514;48.810;2.134;2022-07-05T11:36:40;101057.44;;;24.80;39.68
70781;BME280;59514;48.810;2.134;2022-07-05T11:39:11;101049.84;;;24.71;39.96
70781;BME280;59514;48.810;2.134;2022-07-05T11:41:38;101052.13;;;25.37;38.03
70781;BME280;59514;48.810;2.134;2022-07-05T11:44:06;101055.84;;;25.19;38.93
70781;BME280;59514;48.810;2.134;2022-07-05T11:46:33;101057.13;;;24.95;39.01
70781;BME280;59514;48.810;2.134;2022-07-05T11:49:02;101055.19;;;24.31;40.87
70781;BME280;59514;48.810;2.134;2022-07-05T11:51:28;101046.88;;;23.98;41.30
70781;BME280;59514;48.810;2.134;2022-07-05T11:53:53;101047.25;;;24.94;40.13
70781;BME280;59514;48.810;2.134;2022-07-05T11:56:22;101038.72;;;25.49;38.62
70781;BME280;59514;48.810;2.134;2022-07-05T11:58:47;101053.16;;;24.87;39.46
70781;BME280;59514;48.810;2.134;2022-07-05T12:01:13;101049.00;;;24.07;41.23
70781;BME280;59514;48.810;2.134;2022-07-05T12:03:38;101041.91;;;24.01;42.33
70781;BME280;59514;48.810;2.134;2022-07-05T12:06:14;101039.50;;;24.96;39.33
70781;BME280;59514;48.810;2.134;2022-07-05T12:08:40;101047.28;;;25.21;38.29
70781;BME280;59514;48.810;2.134;2022-07-05T12:11:06;101041.22;;;24.14;40.13
70781;BME280;59514;48.810;2.134;2022-07-05T12:13:50;101033.41;;;25.26;38.72
70781;BME280;59514;48.810;2.134;2022-07-05T12:16:16;101026.91;;;24.95;38.60
70781;BME280;59514;48.810;2.134;2022-07-05T12:18:53;101024.47;;;24.47;41.12
70781;BME280;59514;48.810;2.134;2022-07-05T12:21:20;101029.47;;;24.08;40.70
70781;BME280;59514;48.810;2.134;2022-07-05T12:23:46;101032.66;;;23.59;42.40
70781;BME280;59514;48.810;2.134;2022-07-05T12:26:13;101033.22;;;24.95;39.83
70781;BME280;59514;48.810;2.134;2022-07-05T12:28:39;101030.28;;;23.71;43.05
70781;BME280;59514;48.810;2.134;2022-07-05T12:31:19;101030.16;;;24.83;39.06
70781;BME280;59514;48.810;2.134;2022-07-05T12:33:45;101027.63;;;24.68;37.62
70781;BME280;59514;48.810;2.134;2022-07-05T12:36:12;101029.97;;;24.93;37.71
70781;BME280;59514;48.810;2.134;2022-07-05T12:38:38;101027.56;;;26.17;36.28
70781;BME280;59514;48.810;2.134;2022-07-05T12:41:04;101027.72;;;25.49;37.49
70781;BME280;59514;48.810;2.134;2022-07-05T12:43:29;101030.78;;;25.21;38.23
70781;BME280;59514;48.810;2.134;2022-07-05T12:46:05;101036.47;;;25.51;37.46
70781;BME280;59514;48.810;2.134;2022-07-05T12:48:35;101025.63;;;26.40;35.23
70781;BME280;59514;48.810;2.134;2022-07-05T12:51:01;101032.44;;;26.20;35.78
70781;BME280;59514;48.810;2.134;2022-07-05T12:53:27;101032.44;;;25.49;37.54
70781;BME280;59514;48.810;2.134;2022-07-05T12:56:13;101028.69;;;26.38;36.46
70781;BME280;59514;48.810;2.134;2022-07-05T12:59:02;101027.69;;;26.34;36.30
70781;BME280;59514;48.810;2.134;2022-07-05T13:01:41;101026.91;;;25.22;37.58
70781;BME280;59514;48.810;2.134;2022-07-05T13:04:14;101025.44;;;24.06;39.41
70781;BME280;59514;48.810;2.134;2022-07-05T13:06:56;101020.72;;;24.70;38.36
70781;BME280;59514;48.810;2.134;2022-07-05T13:12:13;101025.59;;;25.33;37.58
70781;BME280;59514;48.810;2.134;2022-07-05T13:14:44;101019.88;;;25.16;36.77